CST,Max TemperatureF,Mean TemperatureF,Min TemperatureF,Max Dew PointF,MeanDew PointF,Min DewpointF,Max Humidity, Mean Humidity, Min Humidity, Max Sea Level PressureIn, Mean Sea Level PressureIn, Min Sea Level PressureIn, Max VisibilityMiles, Mean VisibilityMiles, Min VisibilityMiles, Max Wind SpeedMPH, Mean Wind SpeedMPH, Max Gust SpeedMPH,PrecipitationIn, CloudCover, Events, WindDirDegrees
2013-2-1,41,32,24,30,13,3,75,51,30,30.46,30.37,30.17,10,10,10,20,10,33,0.00,1,,336
2013-2-2,41,32,24,36,24,12,100,70,44,30.34,30.22,30.12,10,9,2,10,3,,0.00,4,Rain-Snow,173
2013-2-3,53,40,28,36,27,19,100,66,26,30.17,30.11,30.06,10,8,0,17,5,23,0.00,1,Fog,293
2013-2-4,50,39,28,30,25,18,93,57,28,30.14,30.04,29.95,10,10,7,10,3,,0.00,1,,166
2013-2-5,60,48,35,41,36,30,93,68,31,30.07,30.00,29.95,10,10,4,8,2,,0.01,3,Rain,219
2013-2-6,62,47,32,45,33,23,100,68,23,30.21,30.14,30.07,10,7,0,5,0,,0.00,2,Fog,15
2013-2-7,57,50,42,46,41,36,87,73,48,30.11,30.01,29.94,10,10,5,10,2,16,0.00,4,Rain,144
2013-2-8,50,42,33,45,37,28,93,78,61,30.28,30.11,29.91,10,9,1,20,8,24,0.07,6,Rain,359
2013-2-9,60,45,30,34,26,14,87,57,16,30.34,30.24,30.16,10,10,7,8,3,,0.00,1,,49
2013-2-10,59,52,46,54,38,25,88,63,35,30.18,30.05,29.92,10,9,2,20,8,32,0.35,3,Rain-Thunderstorm,146
2013-2-11,59,50,42,55,41,23,94,68,33,30.17,30.10,29.98,10,10,5,9,4,,0.00,1,Rain,265
2013-2-12,51,43,35,39,32,21,87,63,32,30.18,30.02,29.79,10,10,5,7,1,,0.07,3,Rain,94
2013-2-13,44,42,39,43,36,32,93,78,70,30.03,29.86,29.70,10,8,2,16,6,22,0.01,8,,275
2013-2-14,55,44,32,34,31,25,100,65,31,30.10,30.05,30.02,10,10,5,13,3,16,0.00,1,,225
2013-2-15,53,42,32,36,31,21,100,69,41,30.13,30.09,30.05,10,10,7,14,3,18,0.00,2,Rain,337
2013-2-16,37,32,26,21,15,9,74,50,30,30.22,30.14,30.10,10,10,7,17,8,22,0.00,2,,335
2013-2-17,44,32,19,23,12,5,86,48,20,30.31,30.24,30.20,10,10,10,12,2,17,0.00,2,,233
2013-2-18,59,46,32,37,21,14,76,36,23,30.26,30.12,29.92,10,10,7,24,9,33,0.09,3,Rain,166
2013-2-19,50,40,30,45,27,3,93,58,17,30.24,30.09,29.92,10,9,3,18,9,30,0.17,3,Rain,282
2013-2-20,35,30,26,27,17,12,93,56,38,30.30,30.24,30.18,10,10,10,10,3,,0.00,2,,9
2013-2-21,55,44,32,43,23,1,93,54,12,30.20,30.04,29.85,10,9,3,20,6,28,0.44,5,Rain-Thunderstorm,99
2013-2-22,50,47,44,45,43,41,93,82,76,30.09,30.01,29.92,10,9,4,15,8,23,0.05,8,Rain,147
2013-2-23,51,43,35,43,40,32,93,83,58,30.02,29.95,29.89,10,6,1,6,0,,0.00,4,,360
2013-2-24,55,42,30,32,27,18,100,61,23,30.10,30.03,29.97,10,9,4,9,2,,0.00,0,,26
2013-2-25,59,46,33,43,32,21,93,60,27,29.96,29.83,29.51,10,10,5,24,5,40,0.05,4,Rain,128
2013-2-26,48,42,37,43,36,32,93,75,57,29.78,29.59,29.46,10,9,2,20,15,33,0.03,8,Rain,196
2013-2-27,51,45,39,32,30,28,70,61,47,29.94,29.87,29.79,10,10,10,14,9,20,0.00,7,,266
2013-2-28,39,36,33,30,25,23,75,63,56,30.06,29.99,29.89,10,10,10,13,7,18,0.00,8,Rain,300